Time;durP1;ratioP1;P1;durP2;ratioP2;P2;SDS_P1;SDS_P2;PMS_P1;PMS_P2;Temp;Humidity;BMP_temperature;BMP_pressure;BME280_temperature;BME280_humidity;BME280_pressure;Samples;Min_cycle;Max_cycle;Signal;HPM_P1;HPM_P2
2022/04/08 00:01:15;;;;;;;;;;;6.30;99.90;;;;;;5093972;28;19912;-50
2022/04/08 00:03:41;;;;;;;;;;;6.30;99.90;;;;;;5093694;28;20363;-46
2022/04/08 00:06:08;;;;;;;;;;;6.30;99.90;;;;;;5094547;28;19919;-51
2022/04/08 00:08:34;;;;;;;;;;;6.40;99.90;;;;;;5094277;28;19909;-49
2022/04/08 00:11:00;;;;;;;;;;;6.30;99.90;;;;;;5093476;28;19909;-52
2022/04/08 00:13:25;;;;;;;;;;;6.30;99.90;;;;;;5094120;28;19920;-51
2022/04/08 00:15:50;;;;;;;;;;;6.40;99.90;;;;;;5094206;28;19910;-47
2022/04/08 00:18:16;;;;;;;;;;;6.40;99.90;;;;;;5093443;28;19922;-49
2022/04/08 00:20:42;;;;;;;;;;;6.30;99.90;;;;;;5094054;28;19912;-46
2022/04/08 00:23:07;;;;;;;;;;;6.40;99.90;;;;;;5094118;28;19919;-47
2022/04/08 00:25:33;;;;;;;;;;;6.30;99.90;;;;;;5093120;28;19908;-52
2022/04/08 00:27:58;;;;;;;;;;;6.30;99.90;;;;;;5094033;28;19931;-47
2022/04/08 00:30:24;;;;;;;;;;;6.30;99.90;;;;;;5093909;28;20419;-47
2022/04/08 00:32:51;;;;;;;;;;;6.30;99.90;;;;;;5093282;28;20282;-47
2022/04/08 00:35:16;;;;;;;;;;;6.30;99.90;;;;;;5093382;28;19927;-47
2022/04/08 00:37:42;;;;;;;;;;;6.30;99.90;;;;;;5094123;28;19912;-53
2022/04/08 00:40:07;;;;;;;;;;;6.30;99.90;;;;;;5092527;28;20332;-48
2022/04/08 00:42:33;;;;;;;;;;;6.30;99.90;;;;;;5093679;28;20279;-50
2022/04/08 00:44:59;;;;;;;;;;;6.30;99.90;;;;;;5092942;28;20367;-48
2022/04/08 00:47:24;;;;;;;;;;;6.30;99.90;;;;;;5093516;28;19912;-49
2022/04/08 00:49:51;;;;;;;;;;;6.20;99.90;;;;;;5093610;28;19970;-51
2022/04/08 00:52:17;;;;;;;;;;;6.30;99.90;;;;;;5092447;28;20289;-48
2022/04/08 00:54:44;;;;;;;;;;;6.20;99.90;;;;;;5093399;28;19908;-52
2022/04/08 00:57:09;;;;;;;;;;;6.20;99.90;;;;;;5093498;28;19908;-54
2022/04/08 00:59:35;;;;;;;;;;;6.20;99.90;;;;;;5092620;28;19912;-53
2022/04/08 01:02:01;;;;;;;;;;;6.10;99.90;;;;;;5093293;28;19962;-53
2022/04/08 01:04:27;;;;;;;;;;;6.00;99.90;;;;;;5093153;28;20440;-51
2022/04/08 01:06:53;;;;;;;;;;;5.90;99.90;;;;;;5092524;28;20390;-54
2022/04/08 01:09:18;;;;;;;;;;;5.80;99.90;;;;;;5092668;28;19920;-54
2022/04/08 01:11:44;;;;;;;;;;;5.70;99.90;;;;;;5093139;28;19916;-54
2022/04/08 01:14:10;;;;;;;;;;;5.60;99.90;;;;;;5092187;28;19908;-54
2022/04/08 01:16:36;;;;;;;;;;;5.50;99.90;;;;;;5092997;28;19912;-52
2022/04/08 01:19:02;;;;;;;;;;;5.40;99.90;;;;;;5092809;28;19916;-52
2022/04/08 01:21:28;;;;;;;;;;;5.30;99.90;;;;;;5092167;28;20002;-52
2022/04/08 01:23:55;;;;;;;;;;;5.30;99.90;;;;;;5092557;28;19958;-53
2022/04/08 01:26:20;;;;;;;;;;;5.30;99.90;;;;;;5092891;28;20478;-53
2022/04/08 01:28:47;;;;;;;;;;;5.20;99.90;;;;;;5092150;28;19983;-51
2022/04/08 01:31:12;;;;;;;;;;;5.20;99.90;;;;;;5092618;28;19912;-51
2022/04/08 01:33:38;;;;;;;;;;;5.20;99.90;;;;;;5093020;28;20295;-48
2022/04/08 01:36:03;;;;;;;;;;;5.10;99.90;;;;;;5091752;28;19920;-51
2022/04/08 01:38:29;;;;;;;;;;;5.10;99.90;;;;;;5092613;28;19915;-52
2022/04/08 01:40:54;;;;;;;;;;;5.00;99.90;;;;;;5092205;28;19912;-54
2022/04/08 01:43:20;;;;;;;;;;;4.90;99.90;;;;;;5091963;28;19908;-48
2022/04/08 01:45:45;;;;;;;;;;;4.90;99.90;;;;;;5092131;28;19915;-52
2022/04/08 01:48:11;;;;;;;;;;;4.80;99.90;;;;;;5092569;28;19908;-49
2022/04/08 01:50:36;;;;;;;;;;;4.80;99.90;;;;;;5091580;28;19908;-46
2022/04/08 01:53:02;;;;;;;;;;;4.80;99.90;;;;;;5092338;28;19920;-46
2022/04/08 01:55:27;;;;;;;;;;;4.80;99.90;;;;;;5091436;28;20003;-47
2022/04/08 01:57:53;;;;;;;;;;;4.80;99.90;;;;;;5092473;28;19946;-50
2022/04/08 02:00:18;;;;;;;;;;;4.80;99.90;;;;;;5092150;28;19915;-49
2022/04/08 02:02:45;;;;;;;;;;;4.80;99.90;;;;;;5091598;28;20216;-50
2022/04/08 02:05:11;;;;;;;;;;;4.80;99.90;;;;;;5092183;28;19915;-47
2022/04/08 02:07:36;;;;;;;;;;;4.80;99.90;;;;;;5091961;28;19908;-46
2022/04/08 02:10:03;;;;;;;;;;;4.80;99.90;;;;;;5090986;28;19951;-47
2022/04/08 02:12:28;;;;;;;;;;;4.80;99.90;;;;;;5091966;28;19924;-51
2022/04/08 02:14:54;;;;;;;;;;;4.70;99.90;;;;;;5092093;28;19912;-47
2022/04/08 02:17:19;;;;;;;;;;;4.70;99.90;;;;;;5090862;28;19933;-47
2022/04/08 02:19:45;;;;;;;;;;;4.70;99.90;;;;;;5092042;28;20002;-46
2022/04/08 02:22:11;;;;;;;;;;;4.60;99.90;;;;;;5091884;28;19908;-47
2022/04/08 02:24:37;;;;;;;;;;;4.60;99.90;;;;;;5091211;28;19931;-47
2022/04/08 02:27:06;;;;;;;;;;;4.50;99.90;;;;;;5092003;28;20367;-48
2022/04/08 02:29:32;;;;;;;;;;;4.50;99.90;;;;;;5091399;28;19952;-48
2022/04/08 02:31:58;;;;;;;;;;;4.40;99.90;;;;;;5091062;28;19923;-46
2022/04/08 02:34:24;;;;;;;;;;;4.40;99.90;;;;;;5091751;28;20005;-47
2022/04/08 02:36:50;;;;;;;;;;;4.40;99.90;;;;;;5091512;28;19963;-50
2022/04/08 02:39:16;;;;;;;;;;;4.40;99.90;;;;;;5091044;28;19915;-47
2022/04/08 02:41:41;;;;;;;;;;;4.40;99.90;;;;;;5091769;28;20467;-51
2022/04/08 02:44:08;;;;;;;;;;;4.30;99.90;;;;;;5091764;28;19908;-47
2022/04/08 02:46:34;;;;;;;;;;;4.30;99.90;;;;;;5090836;28;19920;-47
2022/04/08 02:49:00;;;;;;;;;;;4.30;99.90;;;;;;5091808;28;19908;-48
2022/04/08 02:51:25;;;;;;;;;;;4.20;99.90;;;;;;5091463;28;19943;-50
2022/04/08 02:53:50;;;;;;;;;;;4.10;99.90;;;;;;5091047;28;19935;-50
2022/04/08 02:56:16;;;;;;;;;;;4.10;99.90;;;;;;5091591;28;19908;-46
2022/04/08 02:58:41;;;;;;;;;;;4.10;99.90;;;;;;5092569;28;19912;-48
2022/04/08 03:01:07;;;;;;;;;;;4.20;99.90;;;;;;5095135;28;20374;-54
2022/04/08 03:03:32;;;;;;;;;;;4.30;99.90;;;;;;5095621;28;19961;-55
2022/04/08 03:05:58;;;;;;;;;;;4.40;99.90;;;;;;5094931;28;19954;-57
2022/04/08 03:08:23;;;;;;;;;;;4.40;99.90;;;;;;5095523;28;19916;-57
2022/04/08 03:10:49;;;;;;;;;;;4.30;99.90;;;;;;5095535;28;19908;-57
2022/04/08 03:13:15;;;;;;;;;;;4.30;99.90;;;;;;5094651;28;19959;-57
2022/04/08 03:15:40;;;;;;;;;;;4.30;99.90;;;;;;5095429;28;20433;-58
2022/04/08 03:18:05;;;;;;;;;;;4.30;99.90;;;;;;5095412;28;19916;-57
2022/04/08 03:20:31;;;;;;;;;;;4.40;99.90;;;;;;5093942;28;19922;-55
2022/04/08 03:22:57;;;;;;;;;;;4.40;99.90;;;;;;5095205;28;19916;-55
2022/04/08 03:25:22;;;;;;;;;;;4.40;99.90;;;;;;5095191;28;19912;-54
2022/04/08 03:27:47;;;;;;;;;;;4.40;99.90;;;;;;5094597;28;19911;-55
2022/04/08 03:30:13;;;;;;;;;;;4.40;99.90;;;;;;5095140;28;20010;-56
2022/04/08 03:32:38;;;;;;;;;;;4.30;99.90;;;;;;5095155;28;19977;-54
2022/04/08 03:35:04;;;;;;;;;;;4.30;99.90;;;;;;5094097;28;20345;-55
2022/04/08 03:37:30;;;;;;;;;;;4.20;99.90;;;;;;5095134;28;19958;-56
2022/04/08 03:39:55;;;;;;;;;;;4.20;99.90;;;;;;5095031;28;20398;-54
2022/04/08 03:42:21;;;;;;;;;;;4.10;99.90;;;;;;5094036;28;19915;-53
2022/04/08 03:44:47;;;;;;;;;;;4.10;99.90;;;;;;5094924;28;19908;-56
2022/04/08 03:47:12;;;;;;;;;;;4.00;99.90;;;;;;5094738;28;19912;-54
2022/04/08 03:49:38;;;;;;;;;;;3.90;99.90;;;;;;5093890;28;19977;-54
2022/04/08 03:52:04;;;;;;;;;;;3.90;99.90;;;;;;5094438;28;19924;-53
2022/04/08 03:54:29;;;;;;;;;;;3.90;99.90;;;;;;5094760;28;19935;-54
2022/04/08 03:56:55;;;;;;;;;;;3.90;99.90;;;;;;5093853;28;19908;-57
2022/04/08 03:59:22;;;;;;;;;;;4.00;99.90;;;;;;5093637;28;19912;-53
2022/04/08 04:01:47;;;;;;;;;;;4.00;99.90;;;;;;5093819;28;20370;-55
2022/04/08 04:04:13;;;;;;;;;;;4.10;99.90;;;;;;5093708;28;19912;-55
2022/04/08 04:06:38;;;;;;;;;;;4.20;99.90;;;;;;5094445;28;19963;-55
2022/04/08 04:09:04;;;;;;;;;;;4.20;99.90;;;;;;5093022;28;19955;-53
2022/04/08 04:11:29;;;;;;;;;;;4.40;99.90;;;;;;5094189;28;19915;-54
2022/04/08 04:13:55;;;;;;;;;;;4.50;99.90;;;;;;5094392;28;19924;-53
2022/04/08 04:16:20;;;;;;;;;;;4.50;99.90;;;;;;5093418;28;19915;-49
2022/04/08 04:18:46;;;;;;;;;;;4.50;99.90;;;;;;5094087;28;19912;-55
2022/04/08 04:21:12;;;;;;;;;;;4.50;99.90;;;;;;5094193;28;19999;-53
2022/04/08 04:23:38;;;;;;;;;;;4.50;99.90;;;;;;5093418;28;19908;-50
2022/04/08 04:26:03;;;;;;;;;;;4.40;99.90;;;;;;5094180;28;19933;-51
2022/04/08 04:28:29;;;;;;;;;;;4.40;99.90;;;;;;5094024;28;19919;-54
2022/04/08 04:30:55;;;;;;;;;;;4.40;99.90;;;;;;5093276;28;20336;-53
2022/04/08 04:33:20;;;;;;;;;;;4.30;99.90;;;;;;5093712;28;20366;-56
2022/04/08 04:35:46;;;;;;;;;;;4.30;99.90;;;;;;5093790;28;20338;-55
2022/04/08 04:38:11;;;;;;;;;;;4.20;99.90;;;;;;5093003;28;19935;-51
2022/04/08 04:40:36;;;;;;;;;;;4.10;99.90;;;;;;5093446;28;19977;-55
2022/04/08 04:43:02;;;;;;;;;;;4.10;99.90;;;;;;5093860;28;19919;-55
2022/04/08 04:45:27;;;;;;;;;;;4.10;99.90;;;;;;5092997;28;19931;-51
2022/04/08 04:47:53;;;;;;;;;;;4.00;99.90;;;;;;5093367;28;19954;-53
2022/04/08 04:50:18;;;;;;;;;;;3.90;99.90;;;;;;5093523;28;20358;-51
2022/04/08 04:52:44;;;;;;;;;;;3.90;99.90;;;;;;5092857;28;20294;-52
2022/04/08 04:55:09;;;;;;;;;;;3.80;99.90;;;;;;5093477;28;20365;-50
2022/04/08 04:57:35;;;;;;;;;;;3.80;99.90;;;;;;5093445;28;20300;-52
2022/04/08 05:00:00;;;;;;;;;;;3.80;99.90;;;;;;5092201;28;19912;-48
2022/04/08 05:02:26;;;;;;;;;;;3.80;99.90;;;;;;5093300;28;19912;-48
2022/04/08 05:04:51;;;;;;;;;;;3.80;99.90;;;;;;5093292;28;19912;-48
2022/04/08 05:07:17;;;;;;;;;;;3.80;99.90;;;;;;5092636;28;19909;-49
2022/04/08 05:09:42;;;;;;;;;;;3.70;99.90;;;;;;5093229;28;19922;-48
2022/04/08 05:12:09;;;;;;;;;;;3.70;99.90;;;;;;5093149;28;19920;-49
2022/04/08 05:14:34;;;;;;;;;;;3.70;99.90;;;;;;5091875;28;19971;-53
2022/04/08 05:16:59;;;;;;;;;;;3.70;99.90;;;;;;5093135;28;19912;-50
2022/04/08 05:19:25;;;;;;;;;;;3.70;99.90;;;;;;5092235;28;19909;-50
2022/04/08 05:21:52;;;;;;;;;;;3.80;99.90;;;;;;5092286;28;19908;-50
2022/04/08 05:24:18;;;;;;;;;;;3.90;99.90;;;;;;5092195;28;19915;-48
2022/04/08 05:26:44;;;;;;;;;;;4.00;99.90;;;;;;5092144;28;19908;-51
2022/04/08 05:29:09;;;;;;;;;;;4.10;99.90;;;;;;5092398;28;19912;-50
2022/04/08 05:31:34;;;;;;;;;;;4.20;99.90;;;;;;5092851;28;20385;-51
2022/04/08 05:34:00;;;;;;;;;;;4.30;99.90;;;;;;5091931;28;20272;-50
2022/04/08 05:36:25;;;;;;;;;;;4.30;99.90;;;;;;5092479;28;19924;-51
2022/04/08 05:38:51;;;;;;;;;;;4.40;99.90;;;;;;5092427;28;19912;-52
2022/04/08 05:41:16;;;;;;;;;;;4.40;99.90;;;;;;5091838;28;19908;-54
2022/04/08 05:43:44;;;;;;;;;;;4.40;99.90;;;;;;5092617;28;19912;-53
2022/04/08 05:46:12;;;;;;;;;;;4.40;99.90;;;;;;5092484;28;19912;-50
2022/04/08 05:48:38;;;;;;;;;;;4.40;99.90;;;;;;5091368;28;19915;-53
2022/04/08 05:51:03;;;;;;;;;;;4.40;99.90;;;;;;5091520;28;19913;-54
2022/04/08 05:53:29;;;;;;;;;;;4.50;99.90;;;;;;5092330;28;20356;-53
2022/04/08 05:55:58;;;;;;;;;;;4.40;99.90;;;;;;5091624;28;19943;-50
2022/04/08 05:58:24;;;;;;;;;;;4.50;99.90;;;;;;5090143;28;20286;-55
2022/04/08 06:00:50;;;;;;;;;;;4.50;99.90;;;;;;5102865;28;19911;-49
2022/04/08 06:03:15;;;;;;;;;;;4.50;99.90;;;;;;5111355;28;19955;-52
2022/04/08 06:05:41;;;;;;;;;;;4.60;99.90;;;;;;5111789;28;19911;-51
2022/04/08 06:08:07;;;;;;;;;;;4.60;99.90;;;;;;5106356;28;20333;-51
2022/04/08 06:10:32;;;;;;;;;;;4.70;99.90;;;;;;5093204;28;20359;-53
2022/04/08 06:12:58;;;;;;;;;;;4.70;99.90;;;;;;5111881;28;19916;-52
2022/04/08 06:15:26;;;;;;;;;;;4.80;99.90;;;;;;5101535;28;20272;-52
2022/04/08 06:17:51;;;;;;;;;;;4.80;99.90;;;;;;5090764;28;20290;-50
2022/04/08 06:20:17;;;;;;;;;;;4.90;99.90;;;;;;5091201;28;19908;-51
2022/04/08 06:22:43;;;;;;;;;;;4.80;99.90;;;;;;5091288;28;19973;-54
2022/04/08 06:25:10;;;;;;;;;;;4.90;99.90;;;;;;5092280;28;19908;-53
2022/04/08 06:27:36;;;;;;;;;;;4.90;99.90;;;;;;5092153;28;19986;-50
2022/04/08 06:30:03;;;;;;;;;;;4.90;99.90;;;;;;5087983;28;19956;-52
2022/04/08 06:32:28;;;;;;;;;;;4.90;99.90;;;;;;5087965;28;19965;-52
2022/04/08 06:34:54;;;;;;;;;;;4.90;99.90;;;;;;5089639;28;19963;-51
2022/04/08 06:37:19;;;;;;;;;;;4.80;99.90;;;;;;5089831;28;20010;-51
2022/04/08 06:39:47;;;;;;;;;;;4.70;99.90;;;;;;5090390;28;19915;-52
2022/04/08 06:42:13;;;;;;;;;;;4.80;99.90;;;;;;5090334;28;19969;-49
2022/04/08 06:44:38;;;;;;;;;;;4.80;99.90;;;;;;5088946;28;19908;-50
2022/04/08 06:47:04;;;;;;;;;;;4.90;99.90;;;;;;5091932;28;19920;-54
2022/04/08 06:49:29;;;;;;;;;;;4.90;99.90;;;;;;5090130;28;19961;-50
2022/04/08 06:51:58;;;;;;;;;;;5.00;99.90;;;;;;5089518;28;19916;-53
2022/04/08 06:54:28;;;;;;;;;;;5.10;99.90;;;;;;5090660;28;19908;-54
2022/04/08 06:56:54;;;;;;;;;;;5.20;99.90;;;;;;5090407;28;19916;-51
2022/04/08 06:59:19;;;;;;;;;;;5.20;99.90;;;;;;5086998;28;19908;-49
2022/04/08 07:01:45;;;;;;;;;;;5.30;99.90;;;;;;5091683;28;19913;-49
2022/04/08 07:04:10;;;;;;;;;;;5.30;99.90;;;;;;5090301;28;19981;-47
2022/04/08 07:06:36;;;;;;;;;;;5.30;99.90;;;;;;5089314;28;20002;-50
2022/04/08 07:09:01;;;;;;;;;;;5.20;99.90;;;;;;5090206;28;19908;-50
2022/04/08 07:11:27;;;;;;;;;;;5.20;99.90;;;;;;5090039;28;20282;-48
2022/04/08 07:13:52;;;;;;;;;;;5.20;99.90;;;;;;5089609;28;19920;-52
2022/04/08 07:16:17;;;;;;;;;;;5.20;99.90;;;;;;5087389;28;19999;-52
2022/04/08 07:18:43;;;;;;;;;;;5.30;99.90;;;;;;5089269;28;20010;-50
2022/04/08 07:21:09;;;;;;;;;;;5.40;99.90;;;;;;5089219;28;20038;-50
2022/04/08 07:23:36;;;;;;;;;;;5.50;99.90;;;;;;5091893;28;19951;-49
2022/04/08 07:26:02;;;;;;;;;;;5.50;99.90;;;;;;5089473;28;19908;-49
2022/04/08 07:28:28;;;;;;;;;;;5.60;99.90;;;;;;5089602;28;19919;-48
2022/04/08 07:30:53;;;;;;;;;;;5.70;99.90;;;;;;5089970;28;20382;-53
2022/04/08 07:33:18;;;;;;;;;;;5.90;99.90;;;;;;5089127;28;19923;-51
2022/04/08 07:35:44;;;;;;;;;;;6.00;99.90;;;;;;5087747;28;19920;-50
2022/04/08 07:38:10;;;;;;;;;;;6.00;99.90;;;;;;5091046;28;20386;-51
2022/04/08 07:40:35;;;;;;;;;;;6.10;99.90;;;;;;5088711;28;20339;-48
2022/04/08 07:43:01;;;;;;;;;;;6.20;99.90;;;;;;5089753;28;19908;-51
2022/04/08 07:45:30;;;;;;;;;;;6.20;99.90;;;;;;5092063;28;19908;-55
2022/04/08 07:47:58;;;;;;;;;;;6.30;99.90;;;;;;5093012;28;19944;-51
2022/04/08 07:50:25;;;;;;;;;;;6.50;99.90;;;;;;5095023;28;19908;-53
2022/04/08 07:52:50;;;;;;;;;;;6.70;99.90;;;;;;5094751;28;19916;-51
2022/04/08 07:55:20;;;;;;;;;;;6.80;99.90;;;;;;5094224;28;19908;-51
2022/04/08 07:57:49;;;;;;;;;;;6.90;99.90;;;;;;5094541;28;19954;-48
2022/04/08 08:00:24;;;;;;;;;;;7.00;99.90;;;;;;5094197;28;19962;-52
2022/04/08 08:02:50;;;;;;;;;;;7.10;99.90;;;;;;5110641;28;20002;-51
2022/04/08 08:05:15;;;;;;;;;;;7.40;99.90;;;;;;5112006;28;20007;-55
2022/04/08 08:07:50;;;;;;;;;;;7.20;99.90;;;;;;5094497;28;20344;-54
2022/04/08 08:10:16;;;;;;;;;;;6.80;99.90;;;;;;5093769;28;20252;-55
2022/04/08 08:12:42;;;;;;;;;;;6.60;99.90;;;;;;5094187;28;19923;-54
2022/04/08 08:15:08;;;;;;;;;;;6.40;99.90;;;;;;5093831;28;19908;-53
2022/04/08 08:17:33;;;;;;;;;;;6.30;99.90;;;;;;5093839;28;19977;-53
2022/04/08 08:19:58;;;;;;;;;;;6.20;99.90;;;;;;5099324;28;19915;-51
2022/04/08 08:22:24;;;;;;;;;;;6.20;99.90;;;;;;5114045;28;19916;-50
2022/04/08 08:24:49;;;;;;;;;;;6.20;99.90;;;;;;5102491;28;19930;-52
2022/04/08 08:27:15;;;;;;;;;;;6.30;99.90;;;;;;5093884;28;19916;-51
2022/04/08 08:29:40;;;;;;;;;;;6.40;99.90;;;;;;5093226;28;20259;-51
2022/04/08 08:32:06;;;;;;;;;;;6.60;99.90;;;;;;5094132;28;19916;-51
2022/04/08 08:34:31;;;;;;;;;;;6.70;99.90;;;;;;5094315;28;19965;-53
2022/04/08 08:36:59;;;;;;;;;;;6.80;99.90;;;;;;5104198;28;20006;-51
2022/04/08 08:39:25;;;;;;;;;;;6.70;99.90;;;;;;5114281;28;20002;-51
2022/04/08 08:41:51;;;;;;;;;;;6.70;99.90;;;;;;5114330;28;19908;-49
2022/04/08 08:44:19;;;;;;;;;;;6.80;99.90;;;;;;5113465;28;19908;-46
2022/04/08 08:46:44;;;;;;;;;;;6.70;99.90;;;;;;5114145;28;19961;-52
2022/04/08 08:49:11;;;;;;;;;;;6.80;99.90;;;;;;5114205;28;19912;-50
2022/04/08 08:51:39;;;;;;;;;;;6.90;99.90;;;;;;5113168;28;19990;-49
2022/04/08 08:54:04;;;;;;;;;;;7.00;99.90;;;;;;5114218;28;19969;-50
2022/04/08 08:56:30;;;;;;;;;;;7.10;99.90;;;;;;5114051;28;19911;-48
2022/04/08 08:58:55;;;;;;;;;;;7.20;99.90;;;;;;5113167;28;20414;-50
2022/04/08 09:01:20;;;;;;;;;;;7.30;99.90;;;;;;5114007;28;19978;-51
2022/04/08 09:03:46;;;;;;;;;;;7.30;99.90;;;;;;5108202;28;19916;-50
2022/04/08 09:06:11;;;;;;;;;;;7.30;99.90;;;;;;5092737;28;19908;-50
2022/04/08 09:08:38;;;;;;;;;;;7.40;99.90;;;;;;5092713;28;19916;-52
2022/04/08 09:11:04;;;;;;;;;;;7.60;99.90;;;;;;5093632;28;19921;-48
2022/04/08 09:13:30;;;;;;;;;;;7.70;99.90;;;;;;5092289;28;20401;-54
2022/04/08 09:15:57;;;;;;;;;;;7.90;99.90;;;;;;5092135;28;19912;-52
2022/04/08 09:18:23;;;;;;;;;;;8.00;99.90;;;;;;5105965;28;19908;-51
2022/04/08 09:20:49;;;;;;;;;;;8.10;99.90;;;;;;5100207;28;19920;-50
2022/04/08 09:23:16;;;;;;;;;;;8.20;99.90;;;;;;5092666;28;19919;-51
2022/04/08 09:25:42;;;;;;;;;;;8.30;99.90;;;;;;5092216;28;19915;-51
2022/04/08 09:28:11;;;;;;;;;;;8.50;99.90;;;;;;5093246;28;19909;-49
2022/04/08 09:30:37;;;;;;;;;;;8.70;99.90;;;;;;5092658;28;19912;-54
2022/04/08 09:33:12;;;;;;;;;;;8.60;99.90;;;;;;5091936;28;19920;-52
2022/04/08 09:35:38;;;;;;;;;;;8.60;99.90;;;;;;5096445;28;19943;-48
2022/04/08 09:38:04;;;;;;;;;;;8.70;99.90;;;;;;5113233;28;20286;-50
2022/04/08 09:40:39;;;;;;;;;;;8.60;99.90;;;;;;5099158;28;19919;-50
2022/04/08 09:43:05;;;;;;;;;;;8.60;99.90;;;;;;5093013;28;19908;-50
2022/04/08 09:45:31;;;;;;;;;;;8.50;99.90;;;;;;5091814;28;19912;-50
2022/04/08 09:48:01;;;;;;;;;;;8.50;99.90;;;;;;5104915;28;19953;-49
2022/04/08 09:50:26;;;;;;;;;;;8.50;99.90;;;;;;5112786;28;19912;-54
2022/04/08 09:52:53;;;;;;;;;;;8.50;99.90;;;;;;5092638;28;19922;-50
2022/04/08 09:55:19;;;;;;;;;;;8.40;99.90;;;;;;5091455;28;19916;-50
2022/04/08 09:57:46;;;;;;;;;;;8.30;99.90;;;;;;5092586;28;19916;-49
2022/04/08 10:00:11;;;;;;;;;;;8.30;99.90;;;;;;5092736;28;19998;-49
2022/04/08 10:02:41;;;;;;;;;;;8.20;99.90;;;;;;5091411;28;19995;-49
2022/04/08 10:05:08;;;;;;;;;;;8.20;99.90;;;;;;5092572;28;19912;-51
2022/04/08 10:07:33;;;;;;;;;;;8.10;99.90;;;;;;5091811;28;20383;-52
2022/04/08 10:09:59;;;;;;;;;;;8.30;99.90;;;;;;5091726;28;19953;-49
2022/04/08 10:12:30;;;;;;;;;;;8.50;99.90;;;;;;5092164;28;19927;-51
2022/04/08 10:15:05;;;;;;;;;;;8.80;99.90;;;;;;5091921;28;20007;-51
2022/04/08 10:17:30;;;;;;;;;;;9.00;99.90;;;;;;5092067;28;20424;-52
2022/04/08 10:20:15;;;;;;;;;;;9.20;99.90;;;;;;5092151;28;19912;-52
2022/04/08 10:22:40;;;;;;;;;;;9.30;99.90;;;;;;5090478;28;20450;-50
2022/04/08 10:25:12;;;;;;;;;;;9.30;99.90;;;;;;5092137;28;19944;-47
2022/04/08 10:27:38;;;;;;;;;;;9.40;99.90;;;;;;5091828;28;19912;-50
2022/04/08 10:30:30;;;;;;;;;;;9.50;99.90;;;;;;5086828;28;19916;-53
2022/04/08 10:32:59;;;;;;;;;;;9.40;99.90;;;;;;5087352;28;19939;-49
2022/04/08 10:35:25;;;;;;;;;;;9.40;98.60;;;;;;5090323;28;19924;-52
2022/04/08 10:38:09;;;;;;;;;;;9.40;99.90;;;;;;5090409;28;19908;-46
2022/04/08 10:40:38;;;;;;;;;;;9.40;99.90;;;;;;5091120;28;19977;-48
2022/04/08 10:43:03;;;;;;;;;;;9.40;99.90;;;;;;5089680;28;19923;-51
2022/04/08 10:45:29;;;;;;;;;;;9.40;99.90;;;;;;5090495;28;19909;-50
2022/04/08 10:47:57;;;;;;;;;;;9.30;99.90;;;;;;5090978;28;19912;-53
2022/04/08 10:50:27;;;;;;;;;;;9.10;99.90;;;;;;5110581;28;19923;-51
2022/04/08 10:53:12;;;;;;;;;;;8.80;99.90;;;;;;5103259;28;19972;-54
2022/04/08 10:55:45;;;;;;;;;;;8.50;99.90;;;;;;5090561;28;19919;-49
2022/04/08 10:58:11;;;;;;;;;;;8.50;99.90;;;;;;5091234;28;20323;-49
2022/04/08 11:00:40;;;;;;;;;;;8.50;99.90;;;;;;5091551;28;19947;-50
2022/04/08 11:03:07;;;;;;;;;;;8.20;99.90;;;;;;5091816;28;19909;-48
2022/04/08 11:05:36;;;;;;;;;;;8.10;99.90;;;;;;5090337;28;19912;-47
2022/04/08 11:08:02;;;;;;;;;;;8.00;99.90;;;;;;5110922;28;19957;-48
2022/04/08 11:10:28;;;;;;;;;;;8.00;99.90;;;;;;5106333;28;20359;-48
2022/04/08 11:12:54;;;;;;;;;;;8.10;99.90;;;;;;5090955;28;19931;-48
2022/04/08 11:15:24;;;;;;;;;;;8.00;99.90;;;;;;5091659;28;19908;-49
2022/04/08 11:17:50;;;;;;;;;;;7.90;99.90;;;;;;5083873;28;19916;-51
2022/04/08 11:20:17;;;;;;;;;;;7.80;99.90;;;;;;5088484;28;20030;-51
2022/04/08 11:22:43;;;;;;;;;;;7.70;99.90;;;;;;5094063;28;19975;-50
2022/04/08 11:25:09;;;;;;;;;;;7.80;99.90;;;;;;5093446;28;19915;-50
2022/04/08 11:27:34;;;;;;;;;;;7.90;99.90;;;;;;5090713;28;19954;-46
2022/04/08 11:30:00;;;;;;;;;;;8.00;99.90;;;;;;5092742;28;19955;-49
2022/04/08 11:32:30;;;;;;;;;;;8.10;99.90;;;;;;5093396;28;19923;-50
2022/04/08 11:34:56;;;;;;;;;;;8.20;99.90;;;;;;5093945;28;19995;-50
2022/04/08 11:37:25;;;;;;;;;;;8.30;99.90;;;;;;5094557;28;20007;-51
2022/04/08 11:39:56;;;;;;;;;;;8.50;99.90;;;;;;5094076;28;19908;-48
2022/04/08 11:42:21;;;;;;;;;;;8.70;99.90;;;;;;5095238;28;20006;-48
2022/04/08 11:44:47;;;;;;;;;;;8.80;99.90;;;;;;5094740;28;20430;-48
2022/04/08 11:47:16;;;;;;;;;;;8.90;99.90;;;;;;5093839;28;19908;-51
2022/04/08 11:49:41;;;;;;;;;;;9.10;99.90;;;;;;5094768;28;19999;-48
2022/04/08 11:52:07;;;;;;;;;;;9.40;99.90;;;;;;5094814;28;20462;-49
2022/04/08 11:54:40;;;;;;;;;;;9.60;92.40;;;;;;5093352;28;19908;-50
2022/04/08 11:57:07;;;;;;;;;;;9.80;95.80;;;;;;5094076;28;20363;-51
2022/04/08 11:59:32;;;;;;;;;;;9.90;90.90;;;;;;5093596;28;19914;-51
2022/04/08 12:01:59;;;;;;;;;;;9.90;86.90;;;;;;5094006;28;20003;-50
2022/04/08 12:04:24;;;;;;;;;;;10.00;86.70;;;;;;5094772;28;19908;-48
2022/04/08 12:06:50;;;;;;;;;;;9.90;90.10;;;;;;5094546;28;19915;-48
2022/04/08 12:09:16;;;;;;;;;;;9.80;92.60;;;;;;5094058;28;19908;-51
2022/04/08 12:11:43;;;;;;;;;;;9.70;98.60;;;;;;5094359;28;19914;-49
2022/04/08 12:14:09;;;;;;;;;;;9.50;99.90;;;;;;5094708;28;20366;-50
2022/04/08 12:16:38;;;;;;;;;;;9.30;99.90;;;;;;5093645;28;20561;-51
2022/04/08 12:19:04;;;;;;;;;;;9.00;99.90;;;;;;5094546;28;19912;-47
2022/04/08 12:21:31;;;;;;;;;;;8.70;99.90;;;;;;5093715;28;19909;-46
2022/04/08 12:23:57;;;;;;;;;;;8.60;99.90;;;;;;5094582;28;19912;-46
2022/04/08 12:26:30;;;;;;;;;;;8.40;99.90;;;;;;5093908;28;20289;-45
2022/04/08 12:29:05;;;;;;;;;;;8.40;99.90;;;;;;5093617;28;19919;-47
2022/04/08 12:31:30;;;;;;;;;;;8.30;99.90;;;;;;5093658;28;19908;-49
2022/04/08 12:33:56;;;;;;;;;;;8.30;99.90;;;;;;5094451;28;20290;-53
2022/04/08 12:36:21;;;;;;;;;;;8.30;99.90;;;;;;5093208;28;20292;-51
2022/04/08 12:38:46;;;;;;;;;;;8.30;99.90;;;;;;5093390;28;19957;-54
2022/04/08 12:41:12;;;;;;;;;;;8.30;99.90;;;;;;5093918;28;19993;-54
2022/04/08 12:43:38;;;;;;;;;;;8.20;99.90;;;;;;5092681;28;19912;-52
2022/04/08 12:46:03;;;;;;;;;;;8.30;99.90;;;;;;5093704;28;19916;-51
2022/04/08 12:48:31;;;;;;;;;;;8.50;99.90;;;;;;5093568;28;19918;-53
2022/04/08 12:50:57;;;;;;;;;;;8.50;99.90;;;;;;5093090;28;19908;-49
2022/04/08 12:53:22;;;;;;;;;;;8.60;99.90;;;;;;5093502;28;19916;-47
2022/04/08 12:55:49;;;;;;;;;;;8.60;99.90;;;;;;5093271;28;19913;-48
2022/04/08 12:58:15;;;;;;;;;;;8.80;99.90;;;;;;5092801;28;19908;-45
2022/04/08 13:00:40;;;;;;;;;;;9.20;99.90;;;;;;5093175;28;19912;-46
2022/04/08 13:03:06;;;;;;;;;;;9.50;99.90;;;;;;5093738;28;19930;-47
2022/04/08 13:05:33;;;;;;;;;;;9.80;99.90;;;;;;5092670;28;20369;-46
2022/04/08 13:07:58;;;;;;;;;;;10.10;99.90;;;;;;5093600;28;19912;-47
2022/04/08 13:10:24;;;;;;;;;;;10.20;99.50;;;;;;5093635;28;19961;-47
2022/04/08 13:12:49;;;;;;;;;;;10.10;96.20;;;;;;5092501;28;19916;-50
2022/04/08 13:15:15;;;;;;;;;;;10.00;99.90;;;;;;5093684;28;19908;-45
2022/04/08 13:17:41;;;;;;;;;;;10.20;92.30;;;;;;5092512;28;20066;-47
2022/04/08 13:20:07;;;;;;;;;;;10.20;94.90;;;;;;5093177;28;20410;-46
2022/04/08 13:22:33;;;;;;;;;;;10.20;84.00;;;;;;5092948;28;19908;-50
2022/04/08 13:24:59;;;;;;;;;;;10.30;73.50;;;;;;5091937;28;20402;-48
2022/04/08 13:27:24;;;;;;;;;;;10.40;79.60;;;;;;5092776;28;19912;-49
2022/04/08 13:29:50;;;;;;;;;;;10.40;79.30;;;;;;5093180;28;19908;-50
2022/04/08 13:32:19;;;;;;;;;;;10.30;76.60;;;;;;5092052;28;20400;-47
2022/04/08 13:34:44;;;;;;;;;;;10.50;92.30;;;;;;5092570;28;19912;-52
2022/04/08 13:37:10;;;;;;;;;;;10.30;80.80;;;;;;5092791;28;19916;-49
2022/04/08 13:39:36;;;;;;;;;;;10.40;84.80;;;;;;5092194;28;19908;-50
2022/04/08 13:42:02;;;;;;;;;;;10.50;82.50;;;;;;5092125;28;19915;-52
2022/04/08 13:44:27;;;;;;;;;;;10.40;74.20;;;;;;5092597;28;19918;-52
2022/04/08 13:46:53;;;;;;;;;;;10.20;72.80;;;;;;5092104;28;19920;-53
2022/04/08 13:49:19;;;;;;;;;;;10.40;79.70;;;;;;5092726;28;19961;-50
2022/04/08 13:51:44;;;;;;;;;;;10.40;75.30;;;;;;5092219;28;19915;-49
2022/04/08 13:54:12;;;;;;;;;;;10.50;80.70;;;;;;5091866;28;20002;-51
2022/04/08 13:56:37;;;;;;;;;;;10.60;82.00;;;;;;5091454;28;19912;-52
2022/04/08 13:59:03;;;;;;;;;;;10.60;75.80;;;;;;5092340;28;19916;-50
2022/04/08 14:01:28;;;;;;;;;;;10.80;88.90;;;;;;5090933;28;19919;-49
2022/04/08 14:03:54;;;;;;;;;;;10.80;78.50;;;;;;5102221;28;20291;-51
2022/04/08 14:06:19;;;;;;;;;;;10.90;77.60;;;;;;5112836;28;19908;-50
2022/04/08 14:08:44;;;;;;;;;;;10.80;73.40;;;;;;5111737;28;19914;-52
2022/04/08 14:11:10;;;;;;;;;;;10.90;81.40;;;;;;5112792;28;19994;-53
2022/04/08 14:13:35;;;;;;;;;;;10.90;73.60;;;;;;5112328;28;19972;-50
2022/04/08 14:16:01;;;;;;;;;;;10.90;75.00;;;;;;5111900;28;19908;-53
2022/04/08 14:18:27;;;;;;;;;;;10.80;73.80;;;;;;5112370;28;19908;-52
2022/04/08 14:20:53;;;;;;;;;;;10.70;80.00;;;;;;5109361;28;20302;-53
2022/04/08 14:23:18;;;;;;;;;;;10.80;89.80;;;;;;5092331;28;19951;-49